Time;durP1;ratioP1;P1;durP2;ratioP2;P2;SDS_P1;SDS_P2;PMS_P1;PMS_P2;Temp;Humidity;BMP_temperature;BMP_pressure;BME280_temperature;BME280_humidity;BME280_pressure;Samples;Min_cycle;Max_cycle;Signal;HPM_P1;HPM_P2
2021/07/13 00:06:01;;;;;;;8.68;5.60;;;19.70;99.90;;;;;;12450353;28;20045;-41
2021/07/13 00:12:03;;;;;;;9.10;6.15;;;19.50;99.90;;;;;;12454659;28;20088;-40
2021/07/13 00:18:07;;;;;;;7.40;5.53;;;19.60;99.90;;;;;;12449695;28;20056;-42
2021/07/13 00:24:09;;;;;;;6.80;6.05;;;19.60;99.90;;;;;;12448050;28;20045;-42
2021/07/13 00:30:13;;;;;;;8.07;5.97;;;19.50;99.90;;;;;;12446244;28;20053;-44
2021/07/13 00:36:15;;;;;;;10.45;7.10;;;19.50;99.90;;;;;;12450762;28;20501;-41
2021/07/13 00:42:18;;;;;;;7.05;6.35;;;19.50;99.90;;;;;;12443895;28;20866;-40
2021/07/13 00:48:21;;;;;;;8.20;6.90;;;19.60;99.90;;;;;;12448475;28;20053;-43
2021/07/13 00:54:24;;;;;;;6.95;6.22;;;19.60;99.90;;;;;;12447183;28;20148;-41
2021/07/13 01:00:26;;;;;;;7.57;6.80;;;19.50;99.90;;;;;;12442643;28;20052;-40
2021/07/13 01:06:58;;;;;;;6.70;6.00;;;19.60;99.90;;;;;;12444391;28;20084;-44
2021/07/13 01:13:10;;;;;;;8.88;6.75;;;19.30;99.90;;;;;;12444392;28;20103;-41
2021/07/13 01:19:33;;;;;;;8.63;7.22;;;19.10;99.90;;;;;;12444592;28;20561;-42
2021/07/13 01:26:03;;;;;;;9.32;7.20;;;19.10;99.90;;;;;;12450608;28;20046;-40
2021/07/13 01:32:07;;;;;;;9.50;7.10;;;19.30;99.90;;;;;;12445194;28;20049;-41
2021/07/13 01:38:14;;;;;;;10.77;7.03;;;19.30;99.90;;;;;;12446675;28;20351;-40
2021/07/13 01:44:18;;;;;;;13.52;7.30;;;19.20;99.90;;;;;;12443411;28;20058;-41
2021/07/13 01:50:21;;;;;;;9.27;7.28;;;19.30;99.90;;;;;;12444379;28;20484;-40
2021/07/13 01:56:23;;;;;;;12.18;7.03;;;19.20;99.90;;;;;;12447245;28;20534;-42
2021/07/13 02:02:27;;;;;;;10.25;7.30;;;19.10;99.90;;;;;;12447068;28;20426;-42
2021/07/13 02:08:30;;;;;;;10.48;7.43;;;19.10;99.90;;;;;;12443344;28;20100;-41
2021/07/13 02:14:32;;;;;;;13.02;7.72;;;19.10;99.90;;;;;;12446352;28;20095;-41
2021/07/13 02:20:34;;;;;;;12.68;7.75;;;19.00;99.90;;;;;;12448682;28;20490;-42
2021/07/13 02:26:43;;;;;;;12.25;7.85;;;19.00;99.90;;;;;;12444328;28;20061;-41
2021/07/13 02:33:00;;;;;;;17.15;8.75;;;18.80;99.90;;;;;;12446285;28;20049;-41
2021/07/13 02:39:07;;;;;;;11.55;8.40;;;18.70;99.90;;;;;;12442030;28;20049;-41
2021/07/13 02:45:10;;;;;;;16.20;9.00;;;18.60;99.90;;;;;;12442194;28;20114;-41
2021/07/13 02:51:14;;;;;;;15.00;9.55;;;18.60;99.90;;;;;;12439909;28;20072;-45
2021/07/13 02:57:17;;;;;;;15.73;8.40;;;18.60;99.90;;;;;;12446341;28;20075;-40
2021/07/13 03:03:22;;;;;;;14.90;9.35;;;18.50;99.90;;;;;;12445916;28;20452;-41
2021/07/13 03:09:24;;;;;;;15.25;9.70;;;18.50;99.90;;;;;;12446646;28;20045;-40
2021/07/13 03:15:32;;;;;;;14.77;9.70;;;18.50;99.90;;;;;;12441018;28;20046;-40
2021/07/13 03:21:37;;;;;;;15.18;8.98;;;18.50;99.90;;;;;;12445118;28;20051;-41
2021/07/13 03:27:39;;;;;;;13.35;8.93;;;18.50;99.90;;;;;;12443617;28;20058;-41
2021/07/13 03:33:41;;;;;;;16.77;9.77;;;18.50;99.90;;;;;;12434454;28;20529;-40
2021/07/13 03:39:44;;;;;;;14.95;9.77;;;18.50;99.90;;;;;;12445754;28;20041;-41
2021/07/13 03:45:46;;;;;;;10.57;9.05;;;18.60;99.90;;;;;;12449436;28;20050;-40
2021/07/13 03:51:48;;;;;;;11.05;9.32;;;18.60;99.90;;;;;;12453149;28;20071;-40
2021/07/13 03:57:53;;;;;;;16.30;9.63;;;18.70;99.90;;;;;;12451936;28;20049;-41
2021/07/13 04:03:55;;;;;;;14.80;9.93;;;18.80;99.90;;;;;;12448481;28;20058;-40
2021/07/13 04:09:57;;;;;;;16.55;10.00;;;18.90;99.90;;;;;;12448852;28;20049;-41
2021/07/13 04:15:59;;;;;;;16.40;10.02;;;19.10;99.90;;;;;;12451469;28;20053;-43
2021/07/13 04:22:01;;;;;;;12.38;8.90;;;19.10;99.90;;;;;;12447814;28;20049;-40
2021/07/13 04:28:03;;;;;;;12.82;9.38;;;19.10;99.90;;;;;;12446020;28;20367;-40
2021/07/13 04:34:09;;;;;;;11.00;9.88;;;19.10;99.90;;;;;;12453147;28;20054;-43
2021/07/13 04:40:12;;;;;;;13.85;10.82;;;19.10;99.90;;;;;;12449663;28;20041;-40
2021/07/13 04:46:14;;;;;;;16.67;10.38;;;19.10;99.90;;;;;;12448973;28;20106;-40
2021/07/13 04:52:16;;;;;;;15.30;10.20;;;19.10;99.90;;;;;;12450520;28;20092;-40
2021/07/13 04:58:18;;;;;;;11.48;10.10;;;19.10;99.90;;;;;;12449474;28;20049;-40
2021/07/13 05:04:19;;;;;;;12.70;9.05;;;19.20;99.90;;;;;;12450352;28;20057;-41
2021/07/13 05:10:22;;;;;;;14.15;9.60;;;19.30;99.90;;;;;;12444959;28;20462;-42
2021/07/13 05:16:23;;;;;;;14.63;10.77;;;19.30;99.90;;;;;;12448060;28;20061;-40
2021/07/13 05:22:25;;;;;;;12.98;10.65;;;19.30;99.90;;;;;;12445434;28;20056;-41
2021/07/13 05:28:27;;;;;;;13.65;10.95;;;19.30;99.90;;;;;;12446497;28;20054;-40
2021/07/13 05:34:29;;;;;;;13.23;10.95;;;19.30;99.90;;;;;;12446265;28;20464;-41
2021/07/13 05:40:31;;;;;;;13.98;10.60;;;19.40;99.90;;;;;;12449485;28;20045;-42
2021/07/13 05:46:34;;;;;;;15.05;11.65;;;19.40;99.90;;;;;;12444429;28;20095;-40
2021/07/13 05:52:36;;;;;;;13.83;11.73;;;19.30;99.90;;;;;;12441413;28;20057;-42
2021/07/13 05:58:39;;;;;;;12.15;10.57;;;19.40;99.90;;;;;;12443426;28;20288;-44
2021/07/13 06:04:40;;;;;;;13.63;11.00;;;19.40;99.90;;;;;;12444514;28;20054;-40
2021/07/13 06:10:42;;;;;;;12.88;10.57;;;19.40;99.90;;;;;;12447488;28;20049;-40
2021/07/13 06:16:44;;;;;;;11.45;10.25;;;19.40;99.90;;;;;;12447744;28;20084;-43
2021/07/13 06:22:46;;;;;;;17.75;11.35;;;19.40;99.90;;;;;;12443547;28;20065;-40
2021/07/13 06:28:48;;;;;;;15.93;10.38;;;19.50;99.90;;;;;;12441215;28;20049;-42
2021/07/13 06:34:49;;;;;;;13.73;10.75;;;19.50;99.90;;;;;;12443311;28;20670;-40
2021/07/13 06:40:51;;;;;;;12.52;11.23;;;19.40;99.90;;;;;;12446130;28;20145;-40
2021/07/13 06:46:53;;;;;;;12.55;11.13;;;19.40;99.90;;;;;;12445331;28;20884;-40
2021/07/13 06:52:55;;;;;;;18.02;11.65;;;19.40;99.90;;;;;;12444842;28;20571;-40
2021/07/13 06:58:57;;;;;;;18.45;13.10;;;19.40;99.90;;;;;;12441401;28;20057;-42
2021/07/13 07:04:59;;;;;;;15.60;13.90;;;19.40;99.90;;;;;;12445672;28;20046;-41
2021/07/13 07:11:00;;;;;;;14.88;13.38;;;19.40;99.90;;;;;;12439963;28;20050;-40
2021/07/13 07:17:02;;;;;;;18.75;14.52;;;19.50;99.90;;;;;;12442442;28;20057;-40
2021/07/13 07:23:05;;;;;;;16.15;14.00;;;19.60;99.90;;;;;;12441209;28;20087;-40
2021/07/13 07:29:06;;;;;;;16.45;12.55;;;19.70;99.90;;;;;;12440686;28;20649;-41
2021/07/13 07:35:09;;;;;;;16.05;12.27;;;19.80;99.90;;;;;;12443759;28;20080;-41
2021/07/13 07:41:10;;;;;;;14.88;12.60;;;20.00;99.90;;;;;;12439520;28;20050;-42
2021/07/13 07:47:12;;;;;;;18.42;14.30;;;20.20;99.90;;;;;;12442889;28;20046;-42
2021/07/13 07:53:14;;;;;;;17.63;14.40;;;20.30;99.90;;;;;;12439353;28;20049;-40
2021/07/13 07:59:16;;;;;;;15.10;13.50;;;20.40;99.90;;;;;;12443529;28;20142;-42
2021/07/13 08:05:18;;;;;;;16.98;11.75;;;20.50;99.90;;;;;;12442380;28;20119;-41
2021/07/13 08:11:20;;;;;;;18.65;11.57;;;20.60;99.90;;;;;;12440782;28;20550;-43
2021/07/13 08:17:22;;;;;;;17.13;10.95;;;20.70;99.90;;;;;;12444329;28;20080;-40
2021/07/13 08:23:24;;;;;;;15.57;12.27;;;20.70;99.90;;;;;;12443982;28;20458;-40
2021/07/13 08:29:25;;;;;;;11.98;10.77;;;20.80;99.90;;;;;;12448770;28;20057;-42
2021/07/13 08:35:28;;;;;;;14.37;12.53;;;20.90;99.90;;;;;;12447733;28;20053;-41
2021/07/13 08:41:32;;;;;;;14.88;11.95;;;20.90;99.90;;;;;;12447206;28;20103;-41
2021/07/13 08:47:41;;;;;;;15.52;12.45;;;21.00;99.90;;;;;;12450565;28;20060;-42
2021/07/13 08:53:43;;;;;;;11.02;9.82;;;20.90;99.90;;;;;;12447283;28;20106;-40
2021/07/13 08:59:47;;;;;;;15.45;11.63;;;20.90;99.90;;;;;;12449498;28;20054;-41
2021/07/13 09:05:57;;;;;;;13.15;11.48;;;20.80;99.90;;;;;;12450992;28;20067;-44
2021/07/13 09:12:07;;;;;;;14.25;12.18;;;20.80;99.90;;;;;;12450360;28;20432;-41
2021/07/13 09:18:09;;;;;;;15.18;13.63;;;20.70;99.90;;;;;;12447556;28;20042;-40
2021/07/13 09:24:17;;;;;;;13.85;11.75;;;20.70;99.90;;;;;;12451313;28;20103;-40
2021/07/13 09:30:19;;;;;;;13.98;12.57;;;20.70;99.90;;;;;;12447897;28;20050;-42
2021/07/13 09:36:20;;;;;;;19.55;14.60;;;20.80;99.90;;;;;;12445161;28;20510;-41
2021/07/13 09:42:28;;;;;;;16.60;12.23;;;20.80;99.90;;;;;;12445180;28;20053;-41
2021/07/13 09:48:34;;;;;;;16.85;14.00;;;20.80;99.90;;;;;;12442024;28;20053;-41
2021/07/13 09:54:40;;;;;;;21.15;17.02;;;20.90;99.90;;;;;;12444904;28;20509;-44
2021/07/13 10:00:57;;;;;;;19.58;16.95;;;20.90;99.90;;;;;;12446758;28;20253;-41
2021/07/13 10:07:04;;;;;;;26.87;16.67;;;20.70;99.90;;;;;;12448177;28;20096;-42
2021/07/13 10:13:06;;;;;;;25.88;17.85;;;20.60;99.90;;;;;;12439269;28;20050;-40
2021/07/13 10:19:09;;;;;;;18.88;16.85;;;20.50;99.90;;;;;;12444245;28;20788;-41
2021/07/13 10:25:11;;;;;;;21.48;18.48;;;20.70;99.90;;;;;;12448358;28;20049;-40
2021/07/13 10:31:13;;;;;;;22.63;20.25;;;20.90;99.90;;;;;;12448298;28;20054;-41
2021/07/13 10:37:35;;;;;;;21.65;18.65;;;21.10;99.90;;;;;;12443180;28;20045;-40
2021/07/13 10:43:47;;;;;;;28.17;21.13;;;21.10;99.90;;;;;;12445179;28;20083;-41
2021/07/13 10:50:17;;;;;;;20.52;17.92;;;21.10;99.90;;;;;;12444939;28;20046;-40
2021/07/13 10:56:30;;;;;;;25.77;22.08;;;21.10;99.90;;;;;;12444870;28;20145;-42
2021/07/13 11:02:35;;;;;;;23.15;20.80;;;21.10;99.90;;;;;;12442665;28;20049;-40
2021/07/13 11:08:40;;;;;;;22.63;20.20;;;21.10;99.90;;;;;;12443368;28;20095;-40
2021/07/13 11:14:53;;;;;;;23.60;21.10;;;21.20;99.90;;;;;;12442441;28;20106;-41
2021/07/13 11:20:55;;;;;;;27.13;23.98;;;21.10;99.90;;;;;;12441953;28;20108;-41
2021/07/13 11:26:58;;;;;;;27.85;24.98;;;21.00;99.90;;;;;;12447204;28;20145;-40
2021/07/13 11:33:02;;;;;;;26.50;22.52;;;21.00;99.90;;;;;;12447617;28;20046;-40
2021/07/13 11:39:06;;;;;;;28.95;24.95;;;20.90;99.90;;;;;;12447334;28;20058;-40
2021/07/13 11:45:09;;;;;;;27.40;23.70;;;20.90;99.90;;;;;;12444228;28;20152;-41
2021/07/13 11:51:10;;;;;;;27.73;22.45;;;20.90;99.90;;;;;;12440061;28;20149;-40
2021/07/13 11:57:18;;;;;;;28.50;25.00;;;21.00;99.90;;;;;;12440636;28;20456;-40
2021/07/13 12:03:29;;;;;;;25.90;22.88;;;21.00;99.90;;;;;;12448370;28;20449;-40
2021/07/13 12:09:37;;;;;;;26.90;23.95;;;21.00;99.90;;;;;;12450306;28;20474;-41
2021/07/13 12:15:39;;;;;;;27.70;24.80;;;21.00;99.90;;;;;;12448859;28;20132;-40
2021/07/13 12:22:10;;;;;;;20.42;18.23;;;21.00;99.90;;;;;;12449917;28;20449;-41
2021/07/13 12:28:12;;;;;;;24.52;20.63;;;21.00;99.90;;;;;;12451212;28;20524;-41
2021/07/13 12:34:27;;;;;;;22.83;20.55;;;21.10;99.90;;;;;;12452024;28;20114;-41
2021/07/13 12:40:29;;;;;;;20.80;18.70;;;21.20;99.90;;;;;;12441980;28;20049;-41
2021/07/13 12:46:31;;;;;;;25.52;22.85;;;21.20;99.90;;;;;;12449627;28;20049;-41
2021/07/13 12:53:04;;;;;;;30.88;26.08;;;21.30;99.90;;;;;;12448248;28;20045;-40
2021/07/13 12:59:08;;;;;;;28.83;25.83;;;21.30;99.90;;;;;;12443091;28;20058;-42
2021/07/13 13:05:23;;;;;;;;;;;21.40;99.90;;;;;;12446843;28;20339;-41
2021/07/13 13:11:34;;;;;;;29.70;23.73;;;21.40;99.90;;;;;;12444720;28;19930;-40
2021/07/13 13:17:36;;;;;;;24.00;21.40;;;21.60;99.90;;;;;;12445067;28;20449;-41
2021/07/13 13:23:38;;;;;;;26.50;22.63;;;21.60;99.90;;;;;;12445940;28;20049;-41
2021/07/13 13:29:40;;;;;;;24.73;22.25;;;21.60;99.90;;;;;;12443962;28;20050;-42
2021/07/13 13:41:55;;;;;;;25.55;21.10;;;21.70;99.90;;;;;;12441460;28;20053;-40
2021/07/13 13:47:57;;;;;;;22.92;20.55;;;21.80;99.90;;;;;;12447627;28;20057;-41
2021/07/13 13:54:00;;;;;;;24.95;22.42;;;21.90;99.90;;;;;;12449813;28;20049;-40
2021/07/13 14:00:05;;;;;;;23.50;20.87;;;21.90;99.90;;;;;;12447543;28;20061;-42
2021/07/13 14:06:07;;;;;;;21.30;19.13;;;22.00;99.90;;;;;;12448968;28;20486;-40
2021/07/13 14:12:10;;;;;;;21.15;18.88;;;22.00;99.90;;;;;;12447040;28;20046;-41
2021/07/13 14:18:12;;;;;;;22.10;19.73;;;22.10;99.90;;;;;;12446079;28;20049;-41
2021/07/13 14:24:14;;;;;;;19.10;17.20;;;22.40;99.90;;;;;;12447840;28;20297;-42
2021/07/13 14:30:16;;;;;;;18.63;16.00;;;23.00;99.90;;;;;;12441752;28;20085;-41
2021/07/13 14:36:18;;;;;;;18.55;16.75;;;23.20;99.90;;;;;;12446415;28;20046;-41
2021/07/13 14:42:20;;;;;;;18.80;15.57;;;23.30;99.90;;;;;;12441338;28;20046;-40
2021/07/13 14:48:22;;;;;;;16.75;14.43;;;23.50;99.90;;;;;;12447217;28;20059;-43
2021/07/13 14:54:23;;;;;;;17.50;15.75;;;23.80;99.90;;;;;;12442880;28;20080;-43
2021/07/13 15:00:25;;;;;;;15.70;14.30;;;23.70;99.90;;;;;;12442491;28;20057;-41
2021/07/13 15:06:27;;;;;;;19.08;17.15;;;23.80;99.90;;;;;;12447567;28;20441;-41
2021/07/13 15:12:29;;;;;;;19.25;17.35;;;23.70;99.90;;;;;;12433525;28;20045;-41
2021/07/13 15:18:31;;;;;;;21.25;18.55;;;23.50;99.90;;;;;;12442866;28;20115;-40
2021/07/13 15:24:33;;;;;;;23.88;19.45;;;23.30;99.90;;;;;;12441402;28;20161;-41
2021/07/13 15:30:35;;;;;;;23.60;20.52;;;23.00;99.90;;;;;;12441385;28;20104;-41
2021/07/13 15:36:38;;;;;;;20.88;18.27;;;22.80;99.90;;;;;;12442548;28;20049;-41
2021/07/13 15:42:42;;;;;;;26.35;23.55;;;22.70;99.90;;;;;;12442709;28;20103;-42
2021/07/13 15:48:44;;;;;;;28.65;25.70;;;22.60;99.90;;;;;;12442395;28;20584;-42
2021/07/13 15:54:46;;;;;;;29.70;26.80;;;22.50;99.90;;;;;;12442426;28;20133;-41
2021/07/13 16:00:47;;;;;;;35.80;30.00;;;22.50;99.90;;;;;;12441670;28;20053;-42
2021/07/13 16:06:50;;;;;;;37.10;33.30;;;22.50;99.90;;;;;;12441535;28;20050;-41
2021/07/13 16:12:53;;;;;;;34.42;30.90;;;22.50;99.90;;;;;;12440912;28;20126;-42
2021/07/13 16:18:55;;;;;;;36.93;33.30;;;22.70;99.90;;;;;;12440666;28;20303;-43
2021/07/13 16:24:57;;;;;;;34.78;31.08;;;22.80;99.90;;;;;;12441443;28;20104;-41
2021/07/13 16:30:59;;;;;;;36.22;32.53;;;22.90;99.90;;;;;;12439946;28;20054;-41
2021/07/13 16:37:01;;;;;;;31.30;25.98;;;23.50;99.90;;;;;;12436999;28;20111;-41
2021/07/13 16:43:03;;;;;;;32.10;28.80;;;24.20;99.90;;;;;;12434782;28;20140;-41
2021/07/13 16:49:08;;;;;;;30.27;27.05;;;24.60;99.90;;;;;;12446229;28;20045;-41
2021/07/13 16:55:10;;;;;;;30.15;27.05;;;24.60;99.90;;;;;;12447952;28;20516;-40
2021/07/13 17:01:11;;;;;;;30.92;27.58;;;24.40;99.90;;;;;;12442471;28;20041;-42
2021/07/13 17:07:13;;;;;;;27.45;24.75;;;23.90;99.90;;;;;;12449401;28;20045;-42
2021/07/13 17:13:17;;;;;;;27.58;24.83;;;23.50;99.90;;;;;;12449583;28;20103;-41
2021/07/13 17:19:19;;;;;;;32.40;29.00;;;23.20;99.90;;;;;;12441926;28;20065;-41
2021/07/13 17:25:21;;;;;;;30.58;27.52;;;23.00;99.90;;;;;;12444977;28;20077;-44
2021/07/13 17:31:23;;;;;;;26.15;23.73;;;22.90;99.90;;;;;;12448272;28;20053;-41
2021/07/13 17:37:25;;;;;;;26.67;24.08;;;22.90;99.90;;;;;;12449780;28;20053;-41
2021/07/13 17:43:27;;;;;;;26.20;23.67;;;23.00;99.90;;;;;;12448593;28;20114;-46
2021/07/13 17:49:33;;;;;;;28.13;25.40;;;22.90;99.90;;;;;;12445617;28;20095;-40
2021/07/13 17:55:35;;;;;;;27.15;24.25;;;22.80;99.90;;;;;;12444639;28;20634;-42
2021/07/13 18:01:37;;;;;;;27.67;24.95;;;23.20;99.90;;;;;;12440564;28;20057;-42
2021/07/13 18:07:39;;;;;;;24.17;21.90;;;23.40;99.90;;;;;;12445031;28;20106;-41
2021/07/13 18:13:42;;;;;;;28.05;25.15;;;23.20;99.90;;;;;;12444662;28;20058;-46
2021/07/13 18:19:43;;;;;;;29.38;26.42;;;23.00;99.90;;;;;;12441098;28;20045;-40
2021/07/13 18:25:45;;;;;;;29.10;26.08;;;22.80;99.90;;;;;;12441354;28;20116;-41
2021/07/13 18:31:47;;;;;;;29.70;26.50;;;22.60;99.90;;;;;;12443583;28;20049;-42
2021/07/13 18:37:49;;;;;;;29.83;26.77;;;22.50;99.90;;;;;;12447074;28;20081;-41
2021/07/13 18:43:51;;;;;;;26.30;23.67;;;22.30;99.90;;;;;;12445602;28;20119;-41
2021/07/13 18:49:53;;;;;;;31.00;28.08;;;22.20;99.90;;;;;;12443746;28;20411;-43
2021/07/13 18:55:55;;;;;;;30.33;27.15;;;22.10;99.90;;;;;;12442419;28;20042;-40
2021/07/13 19:01:57;;;;;;;34.50;30.63;;;22.10;99.90;;;;;;12440491;28;20983;-41
2021/07/13 19:07:59;;;;;;;35.53;31.85;;;22.00;99.90;;;;;;12444041;28;20429;-43
2021/07/13 19:14:01;;;;;;;35.45;31.83;;;22.00;99.90;;;;;;12440921;28;20643;-41
2021/07/13 19:20:05;;;;;;;36.47;32.90;;;21.90;99.90;;;;;;12440522;28;20472;-41
2021/07/13 19:26:06;;;;;;;33.53;30.15;;;21.80;99.90;;;;;;12438976;28;20096;-42
2021/07/13 19:32:14;;;;;;;35.63;32.13;;;21.80;99.90;;;;;;12442145;28;20410;-43
2021/07/13 19:38:20;;;;;;;35.03;31.63;;;21.90;99.90;;;;;;12440964;28;20084;-43
2021/07/13 19:44:22;;;;;;;30.95;27.70;;;21.80;99.90;;;;;;12440996;28;20049;-41
2021/07/13 19:50:23;;;;;;;31.52;28.33;;;21.60;99.90;;;;;;12440442;28;21041;-41
2021/07/13 19:56:25;;;;;;;28.60;25.75;;;21.50;99.90;;;;;;12441937;28;20119;-43
2021/07/13 20:02:27;;;;;;;29.20;26.38;;;21.40;99.90;;;;;;12444026;28;20050;-41
2021/07/13 20:08:29;;;;;;;28.80;25.90;;;21.40;99.90;;;;;;12442971;28;20390;-42
2021/07/13 20:14:31;;;;;;;27.48;24.73;;;21.30;99.90;;;;;;12446227;28;20112;-42
2021/07/13 20:20:33;;;;;;;28.92;25.98;;;21.30;99.90;;;;;;12444562;28;20053;-40
2021/07/13 20:26:35;;;;;;;28.15;25.20;;;21.20;99.90;;;;;;12455286;28;20083;-41
2021/07/13 20:32:37;;;;;;;24.58;22.17;;;21.10;99.90;;;;;;12451938;28;20135;-41
2021/07/13 20:38:39;;;;;;;27.88;25.17;;;21.10;99.90;;;;;;12448204;28;20102;-41
2021/07/13 20:44:40;;;;;;;27.02;24.42;;;21.10;99.90;;;;;;12451135;28;20042;-40
2021/07/13 20:50:42;;;;;;;25.30;22.85;;;21.00;99.90;;;;;;12451992;28;20042;-41
2021/07/13 20:56:44;;;;;;;25.42;22.95;;;20.90;99.90;;;;;;12448077;28;20092;-41
2021/07/13 21:02:46;;;;;;;25.15;22.55;;;20.90;99.90;;;;;;12449060;28;20464;-40
2021/07/13 21:08:49;;;;;;;24.73;22.38;;;20.80;99.90;;;;;;12449176;28;20099;-41
2021/07/13 21:14:50;;;;;;;23.05;20.80;;;20.80;99.90;;;;;;12449314;28;20053;-41
2021/07/13 21:20:52;;;;;;;24.17;21.83;;;20.70;99.90;;;;;;12442697;28;20056;-41
2021/07/13 21:26:54;;;;;;;22.67;20.48;;;20.70;99.90;;;;;;12444704;28;20046;-42
2021/07/13 21:32:56;;;;;;;24.17;21.63;;;20.60;99.90;;;;;;12446681;28;20638;-41
2021/07/13 21:38:58;;;;;;;23.17;20.85;;;20.60;99.90;;;;;;12445865;28;20058;-44
2021/07/13 21:45:00;;;;;;;22.27;20.02;;;20.50;99.90;;;;;;12443793;28;20100;-43
2021/07/13 21:51:02;;;;;;;21.02;19.00;;;20.50;99.90;;;;;;12444385;28;20050;-42
2021/07/13 21:57:04;;;;;;;22.20;20.00;;;20.50;99.90;;;;;;12449794;28;20050;-43
2021/07/13 22:03:06;;;;;;;24.67;22.27;;;20.50;99.90;;;;;;12447606;28;20063;-41
2021/07/13 22:09:09;;;;;;;25.05;22.45;;;20.50;99.90;;;;;;12440357;28;20050;-41
2021/07/13 22:15:12;;;;;;;26.67;24.10;;;20.50;99.90;;;;;;12445203;28;20062;-43
2021/07/13 22:21:13;;;;;;;28.42;25.52;;;20.40;99.90;;;;;;12445922;28;20053;-40
2021/07/13 22:27:15;;;;;;;28.25;25.48;;;20.40;99.90;;;;;;12446314;28;20095;-43
2021/07/13 22:33:17;;;;;;;32.80;29.38;;;20.40;99.90;;;;;;12448183;28;20494;-40
2021/07/13 22:39:19;;;;;;;33.15;29.65;;;20.30;99.90;;;;;;12445769;28;20138;-41
2021/07/13 22:45:21;;;;;;;32.58;29.17;;;20.30;99.90;;;;;;12440777;28;20099;-43
2021/07/13 22:51:26;;;;;;;31.45;28.08;;;20.40;99.90;;;;;;12442100;28;20099;-42
2021/07/13 22:57:28;;;;;;;35.22;30.23;;;20.30;99.90;;;;;;12444840;28;20105;-42
2021/07/13 23:03:30;;;;;;;33.20;28.85;;;20.10;99.90;;;;;;12444176;28;20110;-44
2021/07/13 23:09:32;;;;;;;33.15;29.65;;;20.10;99.90;;;;;;12445628;28;20053;-43
2021/07/13 23:15:38;;;;;;;32.58;29.17;;;20.00;99.90;;;;;;12441309;28;20127;-40
2021/07/13 23:21:40;;;;;;;31.77;28.38;;;19.90;99.90;;;;;;12436343;28;20042;-41
2021/07/13 23:27:43;;;;;;;31.10;27.90;;;19.80;99.90;;;;;;12441684;28;20095;-42
2021/07/13 23:33:44;;;;;;;29.97;26.73;;;19.80;99.90;;;;;;12445461;28;20100;-40
2021/07/13 23:39:46;;;;;;;30.55;26.40;;;19.80;99.90;;;;;;12443421;28;20498;-43
2021/07/13 23:45:48;;;;;;;28.73;25.63;;;19.80;99.90;;;;;;12441344;28;20099;-41
2021/07/13 23:51:50;;;;;;;30.35;27.08;;;19.90;99.90;;;;;;12444612;28;20107;-45
2021/07/13 23:57:51;;;;;;;29.67;26.58;;;20.00;99.90;;;;;;12450311;28;20054;-41
